sensor_id;sensor_type;location;lat;lon;timestamp;temperature;humidity
62575;DHT22;53112;45.602;11.904;2023-02-15T00:00:25;5.10;67.40
62575;DHT22;53112;45.602;11.904;2023-02-15T00:02:51;5.00;67.80
62575;DHT22;53112;45.602;11.904;2023-02-15T00:05:17;4.90;68.40
62575;DHT22;53112;45.602;11.904;2023-02-15T00:07:43;5.10;67.00
62575;DHT22;53112;45.602;11.904;2023-02-15T00:10:09;5.30;67.20
62575;DHT22;53112;45.602;11.904;2023-02-15T00:12:37;5.30;65.40
62575;DHT22;53112;45.602;11.904;2023-02-15T00:15:03;5.00;67.50
62575;DHT22;53112;45.602;11.904;2023-02-15T00:17:29;5.00;65.80
62575;DHT22;53112;45.602;11.904;2023-02-15T00:19:55;5.20;64.10
62575;DHT22;53112;45.602;11.904;2023-02-15T00:24:57;5.20;63.70
62575;DHT22;53112;45.602;11.904;2023-02-15T00:29:56;5.00;63.80
62575;DHT22;53112;45.602;11.904;2023-02-15T00:32:22;4.70;68.00
62575;DHT22;53112;45.602;11.904;2023-02-15T00:34:48;4.60;69.10
62575;DHT22;53112;45.602;11.904;2023-02-15T00:37:14;4.80;66.20
62575;DHT22;53112;45.602;11.904;2023-02-15T00:39:40;4.90;65.00
62575;DHT22;53112;45.602;11.904;2023-02-15T00:42:05;4.90;64.60
62575;DHT22;53112;45.602;11.904;2023-02-15T00:44:31;5.00;63.60
62575;DHT22;53112;45.602;11.904;2023-02-15T00:46:57;5.10;64.90
62575;DHT22;53112;45.602;11.904;2023-02-15T00:49:23;5.00;63.50
62575;DHT22;53112;45.602;11.904;2023-02-15T00:51:49;5.10;64.40
62575;DHT22;53112;45.602;11.904;2023-02-15T00:54:15;5.10;63.90
62575;DHT22;53112;45.602;11.904;2023-02-15T00:56:41;5.00;63.60
62575;DHT22;53112;45.602;11.904;2023-02-15T00:59:08;4.70;66.60
62575;DHT22;53112;45.602;11.904;2023-02-15T01:01:34;4.80;66.20
62575;DHT22;53112;45.602;11.904;2023-02-15T01:04:00;4.80;65.20
62575;DHT22;53112;45.602;11.904;2023-02-15T01:06:26;4.70;64.30
62575;DHT22;53112;45.602;11.904;2023-02-15T01:08:52;4.60;66.80
62575;DHT22;53112;45.602;11.904;2023-02-15T01:11:21;4.70;64.40
62575;DHT22;53112;45.602;11.904;2023-02-15T01:13:51;4.80;62.70
62575;DHT22;53112;45.602;11.904;2023-02-15T01:16:18;4.80;63.10
62575;DHT22;53112;45.602;11.904;2023-02-15T01:18:44;4.90;62.00
62575;DHT22;53112;45.602;11.904;2023-02-15T01:21:14;4.90;62.70
62575;DHT22;53112;45.602;11.904;2023-02-15T01:23:41;4.80;62.00
62575;DHT22;53112;45.602;11.904;2023-02-15T01:28:37;4.80;63.80
62575;DHT22;53112;45.602;11.904;2023-02-15T01:31:11;4.70;63.90
62575;DHT22;53112;45.602;11.904;2023-02-15T01:33:38;4.70;65.90
62575;DHT22;53112;45.602;11.904;2023-02-15T01:36:04;4.50;65.10
62575;DHT22;53112;45.602;11.904;2023-02-15T01:38:31;4.30;67.40
62575;DHT22;53112;45.602;11.904;2023-02-15T01:40:57;4.30;67.50
62575;DHT22;53112;45.602;11.904;2023-02-15T01:43:45;4.30;67.00
62575;DHT22;53112;45.602;11.904;2023-02-15T01:46:13;4.30;66.60
62575;DHT22;53112;45.602;11.904;2023-02-15T01:48:45;4.40;65.40
62575;DHT22;53112;45.602;11.904;2023-02-15T01:53:49;4.20;66.80
62575;DHT22;53112;45.602;11.904;2023-02-15T01:56:27;4.40;63.90
62575;DHT22;53112;45.602;11.904;2023-02-15T01:58:58;4.40;63.40
62575;DHT22;53112;45.602;11.904;2023-02-15T02:01:27;4.40;62.50
62575;DHT22;53112;45.602;11.904;2023-02-15T02:04:05;4.40;62.50
62575;DHT22;53112;45.602;11.904;2023-02-15T02:06:33;4.40;65.60
62575;DHT22;53112;45.602;11.904;2023-02-15T02:09:02;4.30;65.10
62575;DHT22;53112;45.602;11.904;2023-02-15T02:11:27;4.20;66.20
62575;DHT22;53112;45.602;11.904;2023-02-15T02:13:54;4.20;63.80
62575;DHT22;53112;45.602;11.904;2023-02-15T02:27:41;4.20;64.30
62575;DHT22;53112;45.602;11.904;2023-02-15T02:38:34;4.00;66.40
62575;DHT22;53112;45.602;11.904;2023-02-15T02:43:59;4.10;64.90
62575;DHT22;53112;45.602;11.904;2023-02-15T02:46:50;4.00;66.00
62575;DHT22;53112;45.602;11.904;2023-02-15T02:49:38;4.00;66.70
62575;DHT22;53112;45.602;11.904;2023-02-15T02:54:52;4.10;64.20
62575;DHT22;53112;45.602;11.904;2023-02-15T02:57:19;4.10;62.30
62575;DHT22;53112;45.602;11.904;2023-02-15T02:59:48;4.10;63.60
62575;DHT22;53112;45.602;11.904;2023-02-15T03:02:26;4.10;63.60
62575;DHT22;53112;45.602;11.904;2023-02-15T03:04:59;4.10;64.00
62575;DHT22;53112;45.602;11.904;2023-02-15T03:07:31;4.10;64.20
62575;DHT22;53112;45.602;11.904;2023-02-15T03:09:59;4.10;62.70
62575;DHT22;53112;45.602;11.904;2023-02-15T03:12:36;4.00;62.20
62575;DHT22;53112;45.602;11.904;2023-02-15T03:15:04;3.90;64.10
62575;DHT22;53112;45.602;11.904;2023-02-15T03:17:37;3.80;65.10
62575;DHT22;53112;45.602;11.904;2023-02-15T03:20:16;3.90;67.10
62575;DHT22;53112;45.602;11.904;2023-02-15T03:22:50;3.90;65.90
62575;DHT22;53112;45.602;11.904;2023-02-15T03:25:33;3.70;66.30
62575;DHT22;53112;45.602;11.904;2023-02-15T03:28:04;3.50;66.60
62575;DHT22;53112;45.602;11.904;2023-02-15T03:30:32;3.40;67.60
62575;DHT22;53112;45.602;11.904;2023-02-15T03:33:00;3.30;69.20
62575;DHT22;53112;45.602;11.904;2023-02-15T03:35:49;3.50;68.10
62575;DHT22;53112;45.602;11.904;2023-02-15T03:38:20;3.60;66.70
62575;DHT22;53112;45.602;11.904;2023-02-15T03:40:53;3.70;66.20
62575;DHT22;53112;45.602;11.904;2023-02-15T03:43:53;3.80;65.80
62575;DHT22;53112;45.602;11.904;2023-02-15T03:49:20;3.40;68.00
62575;DHT22;53112;45.602;11.904;2023-02-15T03:51:50;3.50;66.90
62575;DHT22;53112;45.602;11.904;2023-02-15T03:54:27;3.60;64.50
62575;DHT22;53112;45.602;11.904;2023-02-15T03:57:16;3.70;64.60
62575;DHT22;53112;45.602;11.904;2023-02-15T04:00:09;3.60;63.90
62575;DHT22;53112;45.602;11.904;2023-02-15T04:03:02;3.70;63.80
62575;DHT22;53112;45.602;11.904;2023-02-15T04:05:30;3.60;63.50
62575;DHT22;53112;45.602;11.904;2023-02-15T04:07:56;3.40;67.80
62575;DHT22;53112;45.602;11.904;2023-02-15T04:10:22;3.20;68.80
62575;DHT22;53112;45.602;11.904;2023-02-15T04:13:06;3.30;68.10
62575;DHT22;53112;45.602;11.904;2023-02-15T04:15:32;3.50;65.10
62575;DHT22;53112;45.602;11.904;2023-02-15T04:18:16;3.40;66.00
62575;DHT22;53112;45.602;11.904;2023-02-15T04:20:46;3.40;64.50
62575;DHT22;53112;45.602;11.904;2023-02-15T04:23:30;3.60;64.10
62575;DHT22;53112;45.602;11.904;2023-02-15T04:26:15;3.30;68.20
62575;DHT22;53112;45.602;11.904;2023-02-15T04:28:41;3.40;65.90
62575;DHT22;53112;45.602;11.904;2023-02-15T04:31:07;3.10;69.20
62575;DHT22;53112;45.602;11.904;2023-02-15T04:33:33;3.20;68.00
62575;DHT22;53112;45.602;11.904;2023-02-15T04:36:02;3.20;67.40
62575;DHT22;53112;45.602;11.904;2023-02-15T04:38:28;3.40;66.40
62575;DHT22;53112;45.602;11.904;2023-02-15T04:40:54;3.40;64.70
62575;DHT22;53112;45.602;11.904;2023-02-15T04:43:20;3.40;66.60
62575;DHT22;53112;45.602;11.904;2023-02-15T04:45:50;3.40;66.60
62575;DHT22;53112;45.602;11.904;2023-02-15T04:48:17;3.50;64.70
62575;DHT22;53112;45.602;11.904;2023-02-15T04:50:44;3.20;65.90
62575;DHT22;53112;45.602;11.904;2023-02-15T04:53:10;3.20;65.50
62575;DHT22;53112;45.602;11.904;2023-02-15T04:55:36;3.20;67.00
62575;DHT22;53112;45.602;11.904;2023-02-15T04:58:02;3.20;65.80
62575;DHT22;53112;45.602;11.904;2023-02-15T05:00:28;3.10;68.10
62575;DHT22;53112;45.602;11.904;2023-02-15T05:02:54;3.10;67.30
62575;DHT22;53112;45.602;11.904;2023-02-15T05:05:20;3.30;65.30
62575;DHT22;53112;45.602;11.904;2023-02-15T05:07:46;3.30;65.10
62575;DHT22;53112;45.602;11.904;2023-02-15T05:10:12;3.40;64.00
62575;DHT22;53112;45.602;11.904;2023-02-15T05:12:38;3.30;64.90
62575;DHT22;53112;45.602;11.904;2023-02-15T05:15:04;3.30;65.10
62575;DHT22;53112;45.602;11.904;2023-02-15T05:17:30;3.30;64.50
62575;DHT22;53112;45.602;11.904;2023-02-15T05:19:56;3.40;63.10
62575;DHT22;53112;45.602;11.904;2023-02-15T05:22:22;3.00;66.50
62575;DHT22;53112;45.602;11.904;2023-02-15T05:24:48;2.80;67.50
62575;DHT22;53112;45.602;11.904;2023-02-15T05:27:32;2.90;68.40
62575;DHT22;53112;45.602;11.904;2023-02-15T05:30:17;3.10;67.60
62575;DHT22;53112;45.602;11.904;2023-02-15T05:32:42;3.20;65.30
62575;DHT22;53112;45.602;11.904;2023-02-15T05:35:14;3.30;63.60
62575;DHT22;53112;45.602;11.904;2023-02-15T05:37:40;3.30;64.50
62575;DHT22;53112;45.602;11.904;2023-02-15T05:40:06;3.40;63.30
62575;DHT22;53112;45.602;11.904;2023-02-15T05:42:32;3.30;63.60
62575;DHT22;53112;45.602;11.904;2023-02-15T05:44:58;3.00;66.60
62575;DHT22;53112;45.602;11.904;2023-02-15T05:47:24;3.20;64.90
62575;DHT22;53112;45.602;11.904;2023-02-15T05:49:50;3.30;64.40
62575;DHT22;53112;45.602;11.904;2023-02-15T05:52:16;3.20;65.50
62575;DHT22;53112;45.602;11.904;2023-02-15T05:54:42;3.30;66.40
62575;DHT22;53112;45.602;11.904;2023-02-15T05:57:08;3.40;64.70
62575;DHT22;53112;45.602;11.904;2023-02-15T05:59:34;3.40;63.70
62575;DHT22;53112;45.602;11.904;2023-02-15T06:02:00;3.40;63.70
62575;DHT22;53112;45.602;11.904;2023-02-15T06:04:26;3.10;65.80
62575;DHT22;53112;45.602;11.904;2023-02-15T06:06:52;3.00;65.20
62575;DHT22;53112;45.602;11.904;2023-02-15T06:09:18;2.90;66.80
62575;DHT22;53112;45.602;11.904;2023-02-15T06:11:45;2.90;66.90
62575;DHT22;53112;45.602;11.904;2023-02-15T06:14:11;3.00;65.40
62575;DHT22;53112;45.602;11.904;2023-02-15T06:16:37;3.20;64.90
62575;DHT22;53112;45.602;11.904;2023-02-15T06:19:03;3.20;64.60
62575;DHT22;53112;45.602;11.904;2023-02-15T06:21:30;3.20;64.20
62575;DHT22;53112;45.602;11.904;2023-02-15T06:23:56;3.10;65.20
62575;DHT22;53112;45.602;11.904;2023-02-15T06:26:22;3.10;66.60
62575;DHT22;53112;45.602;11.904;2023-02-15T06:28:48;3.20;65.10
62575;DHT22;53112;45.602;11.904;2023-02-15T06:31:13;3.20;64.40
62575;DHT22;53112;45.602;11.904;2023-02-15T06:33:39;3.30;64.80
62575;DHT22;53112;45.602;11.904;2023-02-15T06:36:05;3.40;64.10
62575;DHT22;53112;45.602;11.904;2023-02-15T06:38:31;3.20;66.10
62575;DHT22;53112;45.602;11.904;2023-02-15T06:40:58;2.60;70.10
62575;DHT22;53112;45.602;11.904;2023-02-15T06:43:24;2.80;70.00
62575;DHT22;53112;45.602;11.904;2023-02-15T06:45:50;3.10;68.40
62575;DHT22;53112;45.602;11.904;2023-02-15T06:48:15;3.30;67.30
62575;DHT22;53112;45.602;11.904;2023-02-15T06:50:41;3.40;68.70
62575;DHT22;53112;45.602;11.904;2023-02-15T06:53:07;3.60;67.70
62575;DHT22;53112;45.602;11.904;2023-02-15T06:55:33;3.90;66.00
62575;DHT22;53112;45.602;11.904;2023-02-15T06:57:59;3.90;66.80
62575;DHT22;53112;45.602;11.904;2023-02-15T07:00:25;3.90;67.70
62575;DHT22;53112;45.602;11.904;2023-02-15T07:02:55;4.00;68.20
62575;DHT22;53112;45.602;11.904;2023-02-15T07:05:22;4.50;66.40
62575;DHT22;53112;45.602;11.904;2023-02-15T07:07:48;4.70;65.20
62575;DHT22;53112;45.602;11.904;2023-02-15T07:10:14;4.80;65.50
62575;DHT22;53112;45.602;11.904;2023-02-15T07:12:40;4.90;65.10
62575;DHT22;53112;45.602;11.904;2023-02-15T07:15:12;5.40;63.80
62575;DHT22;53112;45.602;11.904;2023-02-15T07:17:38;5.90;62.40
62575;DHT22;53112;45.602;11.904;2023-02-15T07:22:35;6.30;61.50
62575;DHT22;53112;45.602;11.904;2023-02-15T07:25:03;6.40;61.70
62575;DHT22;53112;45.602;11.904;2023-02-15T07:27:31;6.50;61.10
62575;DHT22;53112;45.602;11.904;2023-02-15T07:29:57;6.80;60.30
62575;DHT22;53112;45.602;11.904;2023-02-15T07:32:23;6.60;61.40
62575;DHT22;53112;45.602;11.904;2023-02-15T07:34:49;6.70;61.00
62575;DHT22;53112;45.602;11.904;2023-02-15T07:37:15;6.90;60.60
62575;DHT22;53112;45.602;11.904;2023-02-15T07:39:41;7.30;60.20
62575;DHT22;53112;45.602;11.904;2023-02-15T07:42:07;7.40;60.00
62575;DHT22;53112;45.602;11.904;2023-02-15T07:44:33;7.50;61.10
62575;DHT22;53112;45.602;11.904;2023-02-15T07:46:59;7.70;61.60
62575;DHT22;53112;45.602;11.904;2023-02-15T07:49:25;7.60;61.80
62575;DHT22;53112;45.602;11.904;2023-02-15T07:51:51;8.00;60.50
62575;DHT22;53112;45.602;11.904;2023-02-15T07:54:16;8.30;59.10
62575;DHT22;53112;45.602;11.904;2023-02-15T07:56:42;8.50;58.10
62575;DHT22;53112;45.602;11.904;2023-02-15T07:59:09;8.90;57.90
62575;DHT22;53112;45.602;11.904;2023-02-15T08:01:36;9.20;57.40
62575;DHT22;53112;45.602;11.904;2023-02-15T08:04:03;9.60;55.80
62575;DHT22;53112;45.602;11.904;2023-02-15T08:06:32;9.60;54.90
62575;DHT22;53112;45.602;11.904;2023-02-15T08:08:58;9.80;54.70
62575;DHT22;53112;45.602;11.904;2023-02-15T08:11:26;9.90;54.30
62575;DHT22;53112;45.602;11.904;2023-02-15T08:14:09;10.10;54.70
62575;DHT22;53112;45.602;11.904;2023-02-15T08:16:36;10.30;54.00
62575;DHT22;53112;45.602;11.904;2023-02-15T08:21:32;10.40;55.00
62575;DHT22;53112;45.602;11.904;2023-02-15T08:23:58;10.70;54.30
62575;DHT22;53112;45.602;11.904;2023-02-15T08:26:26;10.90;53.80
62575;DHT22;53112;45.602;11.904;2023-02-15T08:28:53;11.10;53.20
62575;DHT22;53112;45.602;11.904;2023-02-15T08:31:20;11.40;53.20
62575;DHT22;53112;45.602;11.904;2023-02-15T08:33:47;11.70;52.30
62575;DHT22;53112;45.602;11.904;2023-02-15T08:36:16;12.10;51.20
62575;DHT22;53112;45.602;11.904;2023-02-15T08:38:43;12.40;51.00
62575;DHT22;53112;45.602;11.904;2023-02-15T08:41:23;12.80;49.90
62575;DHT22;53112;45.602;11.904;2023-02-15T08:43:53;13.10;49.60
62575;DHT22;53112;45.602;11.904;2023-02-15T08:46:21;13.60;48.80
62575;DHT22;53112;45.602;11.904;2023-02-15T08:48:48;13.90;48.70
62575;DHT22;53112;45.602;11.904;2023-02-15T08:51:16;14.20;48.80
62575;DHT22;53112;45.602;11.904;2023-02-15T08:53:46;14.50;47.90
62575;DHT22;53112;45.602;11.904;2023-02-15T08:56:15;14.70;46.90
62575;DHT22;53112;45.602;11.904;2023-02-15T08:58:42;15.40;46.40
62575;DHT22;53112;45.602;11.904;2023-02-15T09:01:16;15.80;46.00
62575;DHT22;53112;45.602;11.904;2023-02-15T09:03:51;16.40;44.50
62575;DHT22;53112;45.602;11.904;2023-02-15T09:06:20;16.80;44.10
62575;DHT22;53112;45.602;11.904;2023-02-15T09:08:46;17.20;43.40
62575;DHT22;53112;45.602;11.904;2023-02-15T09:11:17;17.70;42.10
62575;DHT22;53112;45.602;11.904;2023-02-15T09:13:49;18.00;40.20
62575;DHT22;53112;45.602;11.904;2023-02-15T09:16:15;18.20;39.80
62575;DHT22;53112;45.602;11.904;2023-02-15T09:18:44;18.50;38.60
62575;DHT22;53112;45.602;11.904;2023-02-15T09:21:12;18.70;37.30
62575;DHT22;53112;45.602;11.904;2023-02-15T09:23:46;18.70;37.90
62575;DHT22;53112;45.602;11.904;2023-02-15T09:26:14;19.00;37.60
62575;DHT22;53112;45.602;11.904;2023-02-15T09:28:41;19.40;37.40
62575;DHT22;53112;45.602;11.904;2023-02-15T09:31:18;19.50;35.50
62575;DHT22;53112;45.602;11.904;2023-02-15T09:33:46;20.00;36.90
62575;DHT22;53112;45.602;11.904;2023-02-15T09:36:28;20.60;34.00
62575;DHT22;53112;45.602;11.904;2023-02-15T09:38:59;20.80;34.20
62575;DHT22;53112;45.602;11.904;2023-02-15T09:44:22;20.70;33.10
62575;DHT22;53112;45.602;11.904;2023-02-15T09:57:59;22.20;30.60
62575;DHT22;53112;45.602;11.904;2023-02-15T10:00:53;22.60;30.30
62575;DHT22;53112;45.602;11.904;2023-02-15T10:14:49;23.10;27.80
62575;DHT22;53112;45.602;11.904;2023-02-15T10:17:42;23.50;27.60
62575;DHT22;53112;45.602;11.904;2023-02-15T10:26:14;23.10;26.90
62575;DHT22;53112;45.602;11.904;2023-02-15T10:31:48;24.90;25.00
62575;DHT22;53112;45.602;11.904;2023-02-15T10:34:16;25.60;25.70
62575;DHT22;53112;45.602;11.904;2023-02-15T10:42:03;24.10;25.40
62575;DHT22;53112;45.602;11.904;2023-02-15T10:55:52;24.90;24.50
62575;DHT22;53112;45.602;11.904;2023-02-15T11:01:50;23.70;25.60
62575;DHT22;53112;45.602;11.904;2023-02-15T11:07:21;24.60;24.40
62575;DHT22;53112;45.602;11.904;2023-02-15T11:10:00;25.20;23.90
62575;DHT22;53112;45.602;11.904;2023-02-15T11:12:29;26.30;23.80
62575;DHT22;53112;45.602;11.904;2023-02-15T11:15:30;26.60;22.90
62575;DHT22;53112;45.602;11.904;2023-02-15T11:20:43;26.20;22.90
62575;DHT22;53112;45.602;11.904;2023-02-15T11:23:15;25.70;22.50
62575;DHT22;53112;45.602;11.904;2023-02-15T11:28:45;24.50;24.30
62575;DHT22;53112;45.602;11.904;2023-02-15T11:31:16;25.10;23.60
62575;DHT22;53112;45.602;11.904;2023-02-15T11:33:52;26.10;23.60
62575;DHT22;53112;45.602;11.904;2023-02-15T11:36:27;26.90;22.40
62575;DHT22;53112;45.602;11.904;2023-02-15T11:39:01;27.50;20.80
62575;DHT22;53112;45.602;11.904;2023-02-15T11:41:36;27.90;22.00
62575;DHT22;53112;45.602;11.904;2023-02-15T11:44:11;28.80;19.90
62575;DHT22;53112;45.602;11.904;2023-02-15T11:46:38;26.90;22.20
62575;DHT22;53112;45.602;11.904;2023-02-15T11:51:53;27.60;21.60
62575;DHT22;53112;45.602;11.904;2023-02-15T11:54:29;28.90;20.90
62575;DHT22;53112;45.602;11.904;2023-02-15T11:57:10;28.70;19.40
62575;DHT22;53112;45.602;11.904;2023-02-15T11:59:37;29.20;19.90
62575;DHT22;53112;45.602;11.904;2023-02-15T12:02:20;29.60;19.50
62575;DHT22;53112;45.602;11.904;2023-02-15T12:05:09;26.20;22.00
62575;DHT22;53112;45.602;11.904;2023-02-15T12:07:52;27.30;21.30
62575;DHT22;53112;45.602;11.904;2023-02-15T12:10:24;27.60;21.60
62575;DHT22;53112;45.602;11.904;2023-02-15T12:13:14;28.20;20.50
62575;DHT22;53112;45.602;11.904;2023-02-15T12:16:04;26.30;22.00
62575;DHT22;53112;45.602;11.904;2023-02-15T12:18:37;26.00;22.70
62575;DHT22;53112;45.602;11.904;2023-02-15T12:21:51;25.80;23.30
62575;DHT22;53112;45.602;11.904;2023-02-15T12:24:11;26.40;22.10
62575;DHT22;53112;45.602;11.904;2023-02-15T12:26:40;25.50;23.50
62575;DHT22;53112;45.602;11.904;2023-02-15T12:29:16;26.10;23.40
62575;DHT22;53112;45.602;11.904;2023-02-15T12:31:49;27.60;21.70
62575;DHT22;53112;45.602;11.904;2023-02-15T12:34:30;28.10;21.20
62575;DHT22;53112;45.602;11.904;2023-02-15T12:37:01;27.40;20.60
62575;DHT22;53112;45.602;11.904;2023-02-15T12:39:32;28.10;20.50
62575;DHT22;53112;45.602;11.904;2023-02-15T12:44:32;28.60;20.80
62575;DHT22;53112;45.602;11.904;2023-02-15T12:49:42;30.80;17.70
62575;DHT22;53112;45.602;11.904;2023-02-15T12:52:34;31.10;18.80
62575;DHT22;53112;45.602;11.904;2023-02-15T12:57:47;32.60;17.40
62575;DHT22;53112;45.602;11.904;2023-02-15T13:02:54;30.00;18.80
62575;DHT22;53112;45.602;11.904;2023-02-15T13:05:38;30.50;19.10
62575;DHT22;53112;45.602;11.904;2023-02-15T13:08:16;31.10;18.20
62575;DHT22;53112;45.602;11.904;2023-02-15T13:11:04;32.30;17.10
62575;DHT22;53112;45.602;11.904;2023-02-15T13:13:34;32.60;17.00
62575;DHT22;53112;45.602;11.904;2023-02-15T13:16:36;32.90;17.20
62575;DHT22;53112;45.602;11.904;2023-02-15T13:19:11;33.10;16.10
62575;DHT22;53112;45.602;11.904;2023-02-15T13:21:41;34.00;16.00
62575;DHT22;53112;45.602;11.904;2023-02-15T13:26:45;34.30;15.20
62575;DHT22;53112;45.602;11.904;2023-02-15T13:31:49;30.10;18.30
62575;DHT22;53112;45.602;11.904;2023-02-15T13:34:35;31.80;16.60
62575;DHT22;53112;45.602;11.904;2023-02-15T13:40:03;30.80;17.40
62575;DHT22;53112;45.602;11.904;2023-02-15T13:42:46;31.70;17.70
62575;DHT22;53112;45.602;11.904;2023-02-15T13:51:17;32.10;16.40
62575;DHT22;53112;45.602;11.904;2023-02-15T13:59:52;34.20;14.70
62575;DHT22;53112;45.602;11.904;2023-02-15T14:07:51;33.90;14.70
62575;DHT22;53112;45.602;11.904;2023-02-15T14:10:24;36.40;13.90
62575;DHT22;53112;45.602;11.904;2023-02-15T14:13:30;35.10;14.60
62575;DHT22;53112;45.602;11.904;2023-02-15T14:16:17;35.20;14.10
62575;DHT22;53112;45.602;11.904;2023-02-15T14:31:56;31.30;17.90
62575;DHT22;53112;45.602;11.904;2023-02-15T14:37:23;31.70;16.70
62575;DHT22;53112;45.602;11.904;2023-02-15T14:43:08;34.60;15.40
62575;DHT22;53112;45.602;11.904;2023-02-15T14:50:47;36.90;13.20
62575;DHT22;53112;45.602;11.904;2023-02-15T14:58:38;37.50;13.20
62575;DHT22;53112;45.602;11.904;2023-02-15T15:01:32;38.10;12.60
62575;DHT22;53112;45.602;11.904;2023-02-15T15:04:12;37.60;12.90
62575;DHT22;53112;45.602;11.904;2023-02-15T15:06:41;37.60;12.50
62575;DHT22;53112;45.602;11.904;2023-02-15T15:14:37;28.20;20.20
62575;DHT22;53112;45.602;11.904;2023-02-15T15:17:05;27.10;21.10
62575;DHT22;53112;45.602;11.904;2023-02-15T15:22:21;25.30;22.90
62575;DHT22;53112;45.602;11.904;2023-02-15T15:24:48;25.10;23.50
62575;DHT22;53112;45.602;11.904;2023-02-15T15:27:41;24.60;24.30
62575;DHT22;53112;45.602;11.904;2023-02-15T15:49:10;23.10;25.80
62575;DHT22;53112;45.602;11.904;2023-02-15T15:51:40;23.00;26.10
62575;DHT22;53112;45.602;11.904;2023-02-15T15:54:19;22.80;26.40
62575;DHT22;53112;45.602;11.904;2023-02-15T15:56:52;22.80;26.60
62575;DHT22;53112;45.602;11.904;2023-02-15T15:59:22;22.30;27.10
62575;DHT22;53112;45.602;11.904;2023-02-15T16:01:49;22.40;27.00
62575;DHT22;53112;45.602;11.904;2023-02-15T16:04:34;22.20;27.00
62575;DHT22;53112;45.602;11.904;2023-02-15T16:12:27;20.90;30.00
62575;DHT22;53112;45.602;11.904;2023-02-15T16:14:54;20.30;30.90
62575;DHT22;53112;45.602;11.904;2023-02-15T16:17:28;20.10;30.50
62575;DHT22;53112;45.602;11.904;2023-02-15T16:20:18;20.30;30.00
62575;DHT22;53112;45.602;11.904;2023-02-15T16:22:53;20.40;29.90
62575;DHT22;53112;45.602;11.904;2023-02-15T16:28:08;20.30;30.20
62575;DHT22;53112;45.602;11.904;2023-02-15T16:30:37;19.70;30.90
62575;DHT22;53112;45.602;11.904;2023-02-15T16:33:15;19.50;31.30
62575;DHT22;53112;45.602;11.904;2023-02-15T16:38:12;19.40;31.00
62575;DHT22;53112;45.602;11.904;2023-02-15T16:40:48;19.40;31.10
62575;DHT22;53112;45.602;11.904;2023-02-15T16:43:20;19.20;31.30
62575;DHT22;53112;45.602;11.904;2023-02-15T16:45:49;19.10;31.40
62575;DHT22;53112;45.602;11.904;2023-02-15T16:48:21;18.90;31.50
62575;DHT22;53112;45.602;11.904;2023-02-15T16:50:51;18.90;31.70
62575;DHT22;53112;45.602;11.904;2023-02-15T16:53:25;18.70;31.80
62575;DHT22;53112;45.602;11.904;2023-02-15T16:55:57;18.50;32.00
62575;DHT22;53112;45.602;11.904;2023-02-15T17:00:59;17.90;32.90
62575;DHT22;53112;45.602;11.904;2023-02-15T17:03:27;17.70;33.30
62575;DHT22;53112;45.602;11.904;2023-02-15T17:05:55;17.50;33.70
62575;DHT22;53112;45.602;11.904;2023-02-15T17:08:31;17.30;34.00
62575;DHT22;53112;45.602;11.904;2023-02-15T17:11:21;17.20;34.20
62575;DHT22;53112;45.602;11.904;2023-02-15T17:19:17;16.40;35.80
62575;DHT22;53112;45.602;11.904;2023-02-15T17:22:04;16.20;36.10
62575;DHT22;53112;45.602;11.904;2023-02-15T17:24:42;16.20;36.10
62575;DHT22;53112;45.602;11.904;2023-02-15T17:27:19;16.10;36.50
62575;DHT22;53112;45.602;11.904;2023-02-15T17:29:55;15.90;36.60
62575;DHT22;53112;45.602;11.904;2023-02-15T17:32:24;15.80;36.20
62575;DHT22;53112;45.602;11.904;2023-02-15T17:37:45;15.50;37.30
62575;DHT22;53112;45.602;11.904;2023-02-15T17:42:47;15.30;37.30
62575;DHT22;53112;45.602;11.904;2023-02-15T17:45:14;15.20;37.50
62575;DHT22;53112;45.602;11.904;2023-02-15T17:47:40;14.70;40.50
62575;DHT22;53112;45.602;11.904;2023-02-15T17:50:07;14.40;40.40
62575;DHT22;53112;45.602;11.904;2023-02-15T17:52:35;13.80;43.30
62575;DHT22;53112;45.602;11.904;2023-02-15T17:55:08;13.50;44.40
62575;DHT22;53112;45.602;11.904;2023-02-15T17:57:56;13.60;43.30
62575;DHT22;53112;45.602;11.904;2023-02-15T18:00:22;13.70;42.10
62575;DHT22;53112;45.602;11.904;2023-02-15T18:03:10;14.00;40.90
62575;DHT22;53112;45.602;11.904;2023-02-15T18:05:55;14.00;41.00
62575;DHT22;53112;45.602;11.904;2023-02-15T18:08:39;13.90;40.80
62575;DHT22;53112;45.602;11.904;2023-02-15T18:11:23;13.40;44.80
62575;DHT22;53112;45.602;11.904;2023-02-15T18:14:00;13.20;43.00
62575;DHT22;53112;45.602;11.904;2023-02-15T18:16:30;13.30;42.00
62575;DHT22;53112;45.602;11.904;2023-02-15T18:18:58;13.30;43.20
62575;DHT22;53112;45.602;11.904;2023-02-15T18:21:24;13.10;42.60
62575;DHT22;53112;45.602;11.904;2023-02-15T18:23:50;13.10;42.80
62575;DHT22;53112;45.602;11.904;2023-02-15T18:26:19;13.30;42.30
62575;DHT22;53112;45.602;11.904;2023-02-15T18:28:46;13.10;42.80
62575;DHT22;53112;45.602;11.904;2023-02-15T18:31:12;13.00;42.70
62575;DHT22;53112;45.602;11.904;2023-02-15T18:33:44;13.00;43.30
62575;DHT22;53112;45.602;11.904;2023-02-15T18:36:27;12.80;43.00
62575;DHT22;53112;45.602;11.904;2023-02-15T18:38:55;12.80;43.40
62575;DHT22;53112;45.602;11.904;2023-02-15T18:41:21;12.60;43.50
62575;DHT22;53112;45.602;11.904;2023-02-15T18:43:48;12.60;43.90
62575;DHT22;53112;45.602;11.904;2023-02-15T18:46:16;12.50;44.70
62575;DHT22;53112;45.602;11.904;2023-02-15T18:48:42;11.90;47.80
62575;DHT22;53112;45.602;11.904;2023-02-15T18:51:17;11.90;46.20
62575;DHT22;53112;45.602;11.904;2023-02-15T18:53:45;11.90;46.00
62575;DHT22;53112;45.602;11.904;2023-02-15T18:56:16;11.80;45.40
62575;DHT22;53112;45.602;11.904;2023-02-15T18:58:44;11.80;46.30
62575;DHT22;53112;45.602;11.904;2023-02-15T19:01:13;11.90;44.50
62575;DHT22;53112;45.602;11.904;2023-02-15T19:03:43;11.80;45.10
62575;DHT22;53112;45.602;11.904;2023-02-15T19:06:11;11.40;48.10
62575;DHT22;53112;45.602;11.904;2023-02-15T19:08:38;11.10;48.30
62575;DHT22;53112;45.602;11.904;2023-02-15T19:11:05;11.20;46.50
62575;DHT22;53112;45.602;11.904;2023-02-15T19:13:30;11.30;45.70
62575;DHT22;53112;45.602;11.904;2023-02-15T19:15:56;11.30;46.00
62575;DHT22;53112;45.602;11.904;2023-02-15T19:18:23;11.20;47.40
62575;DHT22;53112;45.602;11.904;2023-02-15T19:20:50;10.60;51.00
62575;DHT22;53112;45.602;11.904;2023-02-15T19:23:18;10.00;51.90
62575;DHT22;53112;45.602;11.904;2023-02-15T19:25:46;10.10;49.90
62575;DHT22;53112;45.602;11.904;2023-02-15T19:28:24;10.10;52.30
62575;DHT22;53112;45.602;11.904;2023-02-15T19:30:53;9.80;53.90
62575;DHT22;53112;45.602;11.904;2023-02-15T19:33:19;9.90;50.70